Pagina principale
METAR-TAF:

METAR-TAF

Aeroporti :

Tabuk, Arabia Saudita

latitudine: 28-22N, longitudine: 036-36E, altezza: 778 m

Osservazione

Il bollettino è stato emesso 1 ora e 7 minuti fa, alle 12:00 UTC
Vento 6 kt da ovest/sud-ovest
Temperature 37°C
Umidità 8%
Pressione 1012 hPa
Visibilità 10 km o più
nessuna nube inferiore a 1500 m e nessun cumulonembo

METAR: OETB 171200Z 25006KT CAVOK 37/M02 Q1012 NOSIG

Ora: 16:07 (13:07 UTC)

Previsione

Il bollettino è stato emesso 2 ore e 7 minuti fa, alle 11:00 UTC
Previsione valida dal 17 alle 12 UTC al 18 alle 18 UTC
Vento 13 kt da ovest/sud-ovest
Visibilità 10 km o più
nessuna nube inferiore a 1500 m e nessun cumulonembo
Evoluzione graduale
dal 17 alle 20 UTC al 17 alle 22 UTC
Vento 3 kt da direzioni variabili

TAF: OETB 171100Z 1712/1818 25013KT CAVOK BECMG 1720/1722 VRB03KT

Osservazioni e previsioni meteorologiche di più di 4000 aeroporti (messaggi METAR e TAF).

Le stazioni disponibili sono rappresentate dai dischi gialli e rossi sulla carta.

Puntare il mouse per vedere il nome della stazione.

Clicca sopra per visualizzare le osservazioni e previsioni meteorologiche.

Per cambiare la mappa : fare clic sui pulsanti verdi con una croce nera per ingrandire, il pulsante verde con un trattino per diminuire, o sulla freccia verde per le mappe adiacenti.


METAR-TAF: